This is the latest recevied weather packets stored in our database for station/object KA3BQE-13. If no packets are shown the sender has not sent any weather packets the latest 10 day(s).
| Time | Temp. | Humidity | Pressure | Rain* | Wind** | Luminosity | Snow |
|---|---|---|---|---|---|---|---|
| 1777746589 | 11.67° C | 40% | 1021.2 hPa | 0 mm | - | 291 W/m² | - |
| 1777746285 | 12.22° C | 44% | 1021.3 hPa | 0 mm | - | 274 W/m² | - |
| 1777745981 | 12.78° C | 43% | 1021.2 hPa | 0 mm | - | 265 W/m² | - |
| 1777745680 | 12.78° C | 44% | 1021.2 hPa | 0 mm | - | 271 W/m² | - |
| 1777745378 | 12.78° C | 42% | 1021 hPa | 0 mm | - | 344 W/m² | - |
| 1777745075 | 13.33° C | 42% | 1021 hPa | 0 mm | - | 1173 W/m² | - |
| 1777744771 | 12.22° C | 38% | 1021.3 hPa | 0 mm | - | 342 W/m² | - |
| 1777744466 | 12.22° C | 43% | 1021.2 hPa | 0 mm | - | 261 W/m² | - |
| 1777744162 | 13.33° C | 42% | 1021.2 hPa | 0 mm | - | 331 W/m² | - |
| 1777743859 | 13.33° C | 41% | 1021.3 hPa | 0 mm | - | 519 W/m² | - |
| 1777743556 | 13.89° C | 36% | 1021.5 hPa | 0 mm | - | 1050 W/m² | - |
| 1777743253 | 12.22° C | 39% | 1021.5 hPa | 0 mm | - | 353 W/m² | - |
| 1777742952 | 12.78° C | 41% | 1021.6 hPa | 0 mm | - | 346 W/m² | - |
| 1777742648 | 12.78° C | 38% | 1021.7 hPa | 0 mm | - | 414 W/m² | - |
| 1777742344 | 13.33° C | 40% | 1021.6 hPa | 0 mm | - | 590 W/m² | - |
| 1777742041 | 13.89° C | 38% | 1021.8 hPa | 0 mm | - | 297 W/m² | - |
| 1777741738 | 13.33° C | 43% | 1021.7 hPa | 0 mm | - | 711 W/m² | - |
| 1777741434 | 14.44° C | 35% | 1021.9 hPa | 0 mm | - | 1031 W/m² | - |
| 1777741130 | 13.89° C | 37% | 1021.6 hPa | 0 mm | - | 976 W/m² | - |
| 1777740828 | 13.33° C | 39% | 1022 hPa | 0 mm | - | 936 W/m² | - |
| 1777740525 | 13.33° C | 42% | 1021.9 hPa | 0 mm | - | 325 W/m² | - |
| 1777740221 | 13.89° C | 40% | 1022 hPa | 0 mm | - | 1082 W/m² | - |
| 1777739917 | 13.33° C | 39% | 1021.8 hPa | 0 mm | - | 709 W/m² | - |
| 1777739614 | 13.33° C | 38% | 1021.9 hPa | 0 mm | - | 962 W/m² | - |
| 1777739311 | 13.33° C | 39% | 1021.9 hPa | 0 mm | - | 916 W/m² | - |
* Rain latest hour (hover to see other rain measurements)
** Current wind speed in m/s (hover to see current wind gust speed)